Time;durP1;ratioP1;P1;durP2;ratioP2;P2;SDS_P1;SDS_P2;PMS_P1;PMS_P2;Temp;Humidity;BMP_temperature;BMP_pressure;BME280_temperature;BME280_humidity;BME280_pressure;Samples;Min_cycle;Max_cycle;Signal;HPM_P1;HPM_P2
2023/10/08 00:02:25;;;;;;;18.48;8.70;;;;;;;10.34;82.75;100315.09;5050334;28;20035;-81
2023/10/08 00:04:51;;;;;;;17.15;9.65;;;;;;;10.36;83.57;100337.03;5049222;28;20033;-81
2023/10/08 00:07:21;;;;;;;22.42;11.98;;;;;;;11.22;80.81;100326.91;5050721;28;20045;-81
2023/10/08 00:09:53;;;;;;;29.42;15.02;;;;;;;11.61;79.25;100317.75;5054913;28;20029;-80
2023/10/08 00:12:20;;;;;;;26.00;14.55;;;;;;;12.09;77.25;100324.28;5053307;28;20498;-83
2023/10/08 00:14:49;;;;;;;26.95;12.65;;;;;;;11.73;79.41;100311.69;5050558;28;20037;-80
2023/10/08 00:17:18;;;;;;;26.73;13.55;;;;;;;11.73;79.27;100293.81;5061749;28;20134;-82
2023/10/08 00:19:44;;;;;;;24.48;13.13;;;;;;;11.71;79.23;100300.41;5057759;28;20082;-80
2023/10/08 00:22:12;;;;;;;21.98;11.98;;;;;;;11.60;78.89;100288.59;5056840;28;20087;-80
2023/10/08 00:24:40;;;;;;;24.08;12.55;;;;;;;11.75;78.54;100290.91;5050199;28;20024;-81
2023/10/08 00:27:09;;;;;;;29.23;12.05;;;;;;;11.68;78.91;100284.81;5050559;28;20413;-81
2023/10/08 00:29:39;;;;;;;22.45;11.35;;;;;;;11.82;77.77;100295.16;5049558;28;20037;-81
2023/10/08 00:32:11;;;;;;;22.55;12.05;;;;;;;11.88;76.75;100288.09;5048994;28;20055;-80
2023/10/08 00:34:41;;;;;;;20.40;11.25;;;;;;;11.38;78.21;100285.50;5059163;28;20062;-81
2023/10/08 00:37:08;;;;;;;20.55;11.48;;;;;;;11.55;77.49;100291.94;5058799;28;20031;-81
2023/10/08 00:39:37;;;;;;;33.07;13.97;;;;;;;11.21;78.40;100280.69;5049156;28;20505;-82
2023/10/08 00:42:05;;;;;;;23.00;11.52;;;;;;;11.48;77.83;100301.03;5061351;28;20025;-81
2023/10/08 00:44:30;;;;;;;19.65;10.98;;;;;;;10.98;78.88;100286.63;5063344;28;20119;-81
2023/10/08 00:47:00;;;;;;;19.85;11.43;;;;;;;11.11;78.33;100285.69;5049311;28;20116;-80
2023/10/08 00:57:26;;;;;;;19.48;11.13;;;;;;;10.50;80.83;100288.97;5063000;28;20029;-81
2023/10/08 00:59:55;;;;;;;25.98;11.32;;;;;;;10.91;78.82;100295.69;5051311;28;20041;-81
2023/10/08 01:02:26;;;;;;;22.38;11.55;;;;;;;10.76;78.65;100261.31;5050458;28;20130;-80
2023/10/08 01:04:51;;;;;;;21.77;11.10;;;;;;;10.93;79.08;100301.63;5048567;28;20021;-80
2023/10/08 01:07:18;;;;;;;24.25;10.85;;;;;;;11.01;77.72;100280.03;5049980;28;20037;-80
2023/10/08 01:09:49;;;;;;;20.63;10.50;;;;;;;11.26;76.86;100294.22;5049855;28;20037;-81
2023/10/08 01:14:43;;;;;;;17.92;9.65;;;;;;;11.24;78.15;100263.44;5049892;28;20032;-81
2023/10/08 01:17:15;;;;;;;17.38;10.38;;;;;;;11.27;77.49;100282.50;5050005;28;20394;-80
2023/10/08 01:19:50;;;;;;;18.15;10.70;;;;;;;11.23;78.83;100289.31;5055801;28;20545;-80
2023/10/08 01:22:18;;;;;;;19.17;11.02;;;;;;;11.32;77.18;100278.34;5054422;28;20025;-81
2023/10/08 01:24:45;;;;;;;18.17;10.23;;;;;;;11.35;76.67;100270.72;5053675;28;20073;-81
2023/10/08 01:27:11;;;;;;;17.85;8.93;;;;;;;11.21;75.65;100254.00;5055143;28;20021;-80
2023/10/08 01:29:38;;;;;;;16.33;8.75;;;;;;;11.35;73.66;100264.59;5055532;28;20074;-80
2023/10/08 01:32:09;;;;;;;19.33;8.13;;;;;;;11.52;73.63;100275.50;5064188;28;20531;-81
2023/10/08 01:34:36;;;;;;;17.08;8.32;;;;;;;11.62;72.90;100273.97;5049164;28;20135;-82
2023/10/08 01:37:08;;;;;;;14.98;7.57;;;;;;;11.78;71.60;100258.41;5065434;28;20066;-81
2023/10/08 01:39:37;;;;;;;14.77;7.40;;;;;;;11.65;71.80;100260.19;5065314;28;20478;-81
2023/10/08 01:42:05;;;;;;;13.35;7.35;;;;;;;11.69;71.15;100254.38;5056534;28;20035;-83
2023/10/08 01:44:31;;;;;;;15.43;7.68;;;;;;;11.73;71.11;100260.91;5049668;28;20021;-81
2023/10/08 01:46:58;;;;;;;16.52;6.85;;;;;;;11.92;70.22;100259.94;5046421;28;20033;-81
2023/10/08 01:49:29;;;;;;;15.80;7.07;;;;;;;11.77;70.98;100257.59;5049772;28;20528;-81
2023/10/08 01:51:54;;;;;;;15.05;7.82;;;;;;;11.41;73.25;100242.34;5058438;28;20033;-81
2023/10/08 01:54:21;;;;;;;17.48;8.80;;;;;;;10.10;76.53;100257.13;5049023;28;20021;-81
2023/10/08 01:56:46;;;;;;;17.48;8.45;;;;;;;9.88;76.61;100272.56;5049469;28;20051;-81
2023/10/08 01:59:14;;;;;;;14.50;8.38;;;;;;;9.84;76.21;100237.53;5050176;28;20398;-80
2023/10/08 02:01:45;;;;;;;15.50;8.33;;;;;;;10.56;74.47;100272.09;5059862;28;20110;-81
2023/10/08 02:04:12;;;;;;;19.17;8.60;;;;;;;10.51;75.55;100274.63;5047634;28;20040;-81
2023/10/08 02:06:39;;;;;;;12.82;8.23;;;;;;;10.11;76.35;100258.75;5058877;28;20028;-81
2023/10/08 02:09:07;;;;;;;14.03;7.83;;;;;;;10.02;76.88;100251.00;5052212;28;20064;-82
2023/10/08 02:11:50;;;;;;;15.18;8.35;;;;;;;10.68;74.56;100265.06;5036937;28;20284;-82
2023/10/08 02:14:16;;;;;;;16.50;8.68;;;;;;;9.58;77.82;100239.25;5038018;28;20041;-83
2023/10/08 02:16:45;;;;;;;16.50;7.93;;;;;;;9.57;77.71;100242.94;5058206;28;20035;-83
2023/10/08 02:19:11;;;;;;;16.77;8.40;;;;;;;10.36;75.04;100265.03;5052368;28;20047;-83
2023/10/08 02:21:40;;;;;;;18.25;8.32;;;;;;;10.17;75.48;100247.25;5047884;28;20514;-82
2023/10/08 02:24:07;;;;;;;16.25;9.05;;;;;;;10.27;76.43;100258.28;5048210;28;20021;-83
2023/10/08 02:26:34;;;;;;;19.45;8.88;;;;;;;10.77;74.82;100274.47;5051643;28;20033;-82
2023/10/08 02:29:00;;;;;;;14.80;8.55;;;;;;;10.30;76.63;100247.22;5048816;28;20107;-82
2023/10/08 02:31:26;;;;;;;14.98;8.45;;;;;;;10.52;76.23;100244.22;5052444;28;20037;-83
2023/10/08 02:33:51;;;;;;;17.73;8.60;;;;;;;10.95;74.01;100246.22;5048671;28;20025;-83
2023/10/08 02:36:17;;;;;;;17.02;8.95;;;;;;;10.97;74.35;100262.81;5051595;28;20025;-83
2023/10/08 02:38:42;;;;;;;16.60;8.68;;;;;;;10.94;74.01;100265.94;5059602;28;20029;-82
2023/10/08 02:41:08;;;;;;;15.95;8.73;;;;;;;10.45;74.69;100204.28;5052117;28;20032;-82
2023/10/08 02:43:36;;;;;;;14.55;7.95;;;;;;;10.65;75.42;100238.84;5058303;28;20025;-82
2023/10/08 02:46:06;;;;;;;16.05;8.27;;;;;;;10.69;74.70;100225.91;5051838;28;20508;-82
2023/10/08 02:48:34;;;;;;;16.02;8.38;;;;;;;10.77;74.11;100236.31;5065426;28;20558;-82
2023/10/08 02:51:07;;;;;;;17.75;8.85;;;;;;;10.02;77.64;100219.03;5057129;28;20052;-82
2023/10/08 02:53:33;;;;;;;15.55;8.43;;;;;;;10.49;77.04;100236.69;5056610;28;20123;-83
2023/10/08 02:55:58;;;;;;;15.43;8.52;;;;;;;10.47;75.84;100204.88;5049892;28;20123;-81
2023/10/08 02:58:27;;;;;;;13.77;7.97;;;;;;;10.49;75.19;100210.00;5049702;28;20533;-82
2023/10/08 03:00:53;;;;;;;13.57;8.27;;;;;;;10.48;75.34;100200.38;5051259;28;20029;-82
2023/10/08 03:03:18;;;;;;;14.07;8.00;;;;;;;10.68;75.22;100246.38;5059854;28;20103;-82
2023/10/08 03:05:56;;;;;;;14.15;8.73;;;;;;;10.59;75.28;100245.03;5051914;28;20068;-82
2023/10/08 03:08:23;;;;;;;13.35;6.80;;;;;;;10.60;75.60;100235.97;5067874;28;20041;-82
2023/10/08 03:10:55;;;;;;;14.23;7.70;;;;;;;10.57;75.37;100236.41;5054360;28;20122;-82
2023/10/08 03:13:26;;;;;;;14.55;7.45;;;;;;;10.40;76.03;100215.59;5052450;28;20045;-82
2023/10/08 03:18:26;;;;;;;13.63;7.22;;;;;;;10.48;75.63;100206.50;5048148;28;20068;-83
2023/10/08 03:20:51;;;;;;;12.85;8.15;;;;;;;10.42;76.55;100213.53;5051985;28;20053;-83
2023/10/08 03:23:24;;;;;;;13.80;7.60;;;;;;;10.22;77.27;100218.94;5061662;28;20036;-82
2023/10/08 03:26:01;;;;;;;13.20;7.00;;;;;;;10.01;78.14;100216.56;5050013;28;20052;-80
2023/10/08 03:28:34;;;;;;;14.05;8.20;;;;;;;9.96;78.88;100203.88;5066427;28;20029;-82
2023/10/08 03:31:03;;;;;;;14.73;7.50;;;;;;;10.29;76.66;100204.75;5064267;28;20575;-82
2023/10/08 03:33:37;;;;;;;16.80;6.93;;;;;;;10.28;76.86;100222.59;5050755;28;20071;-83
2023/10/08 03:39:11;;;;;;;13.05;7.25;;;;;;;10.41;75.39;100217.22;5049161;28;20111;-83
2023/10/08 03:41:39;;;;;;;15.32;7.57;;;;;;;9.97;76.68;100216.19;5055028;28;20693;-81
2023/10/08 03:44:06;;;;;;;15.02;7.15;;;;;;;9.61;78.33;100190.88;5064425;28;20037;-82
2023/10/08 03:46:39;;;;;;;11.63;7.28;;;;;;;9.87;77.33;100215.81;5069058;28;20405;-82
2023/10/08 03:49:11;;;;;;;14.73;7.32;;;;;;;9.62;77.54;100189.03;5066470;28;20050;-81
2023/10/08 03:51:39;;;;;;;13.75;7.50;;;;;;;9.35;79.41;100207.72;5049892;28;20036;-83
2023/10/08 03:54:18;;;;;;;16.73;7.60;;;;;;;9.80;77.07;100191.03;5061838;28;20021;-82
2023/10/08 03:56:45;;;;;;;18.58;7.60;;;;;;;9.45;78.58;100207.31;5051551;28;20044;-82
2023/10/08 03:59:30;;;;;;;16.70;8.20;;;;;;;9.36;79.46;100197.94;5068715;28;20024;-82
2023/10/08 04:02:22;;;;;;;13.30;8.02;;;;;;;9.63;78.98;100220.78;5056854;28;20097;-81
2023/10/08 04:05:00;;;;;;;13.27;7.47;;;;;;;9.02;81.68;100181.97;5053313;28;20114;-82
2023/10/08 04:12:39;;;;;;;13.32;8.40;;;;;;;9.44;80.28;100203.84;5053478;28;20429;-83
2023/10/08 04:15:09;;;;;;;14.30;7.63;;;;;;;9.58;79.29;100199.31;5048847;28;20029;-82
2023/10/08 04:17:50;;;;;;;13.40;8.10;;;;;;;9.59;79.69;100176.97;5052474;28;20768;-82
2023/10/08 04:23:04;;;;;;;16.38;8.85;;;;;;;9.84;79.10;100221.56;5053633;28;20171;-81
2023/10/08 04:25:30;;;;;;;13.82;9.40;;;;;;;9.68;79.65;100227.34;5059221;28;20032;-81
2023/10/08 04:28:00;;;;;;;15.52;8.32;;;;;;;9.17;81.23;100189.72;5050036;28;20035;-82
2023/10/08 04:30:36;;;;;;;23.52;11.82;;;;;;;9.60;79.01;100218.56;5049931;28;20037;-82
2023/10/08 04:33:07;;;;;;;26.90;12.05;;;;;;;9.32;79.50;100188.72;5060972;28;20103;-82
2023/10/08 04:35:36;;;;;;;24.98;10.90;;;;;;;8.74;81.90;100200.78;5059004;28;20032;-82
2023/10/08 04:38:08;;;;;;;24.38;10.27;;;;;;;8.33;84.63;100192.94;5062250;28;20025;-82
2023/10/08 04:40:41;;;;;;;22.83;10.73;;;;;;;8.35;84.88;100209.50;5049136;28;20501;-85
2023/10/08 04:43:10;;;;;;;19.02;10.38;;;;;;;8.33;86.17;100207.03;5060546;28;20039;-81
2023/10/08 04:45:37;;;;;;;16.02;8.27;;;;;;;7.99;86.96;100208.78;5051221;28;20036;-81
2023/10/08 04:48:09;;;;;;;13.32;7.18;;;;;;;7.49;88.21;100202.81;5052863;28;20517;-84
2023/10/08 04:50:37;;;;;;;20.50;7.90;;;;;;;8.00;86.65;100226.34;5062576;28;20397;-81
2023/10/08 04:53:07;;;;;;;14.23;8.00;;;;;;;7.95;87.31;100228.78;5056443;28;20082;-82
2023/10/08 04:55:34;;;;;;;15.18;7.60;;;;;;;8.22;85.77;100208.44;5052667;28;20028;-82
2023/10/08 04:58:02;;;;;;;16.70;8.75;;;;;;;8.09;85.93;100191.63;5049887;28;20395;-83
2023/10/08 05:00:53;;;;;;;17.15;8.85;;;;;;;8.68;85.24;100236.16;5047866;28;20449;-82
2023/10/08 05:03:22;;;;;;;15.07;7.95;;;;;;;8.85;84.82;100236.63;5059361;28;20036;-82
2023/10/08 05:05:55;;;;;;;14.85;7.70;;;;;;;8.74;85.89;100222.06;5051787;28;20107;-82
2023/10/08 05:08:58;;;;;;;15.52;7.40;;;;;;;8.54;86.30;100218.56;5050852;28;20043;-82
2023/10/08 05:11:45;;;;;;;13.10;7.97;;;;;;;8.88;84.52;100214.13;5069020;28;20036;-83
2023/10/08 05:17:21;;;;;;;14.23;7.68;;;;;;;9.35;83.11;100223.69;5049392;28;19916;-82
2023/10/08 05:19:48;;;;;;;15.35;7.65;;;;;;;9.28;84.90;100214.13;5049431;28;20520;-82
2023/10/08 05:22:18;;;;;;;14.93;7.93;;;;;;;9.33;85.17;100224.94;5049177;28;20417;-82
2023/10/08 05:30:16;;;;;;;16.00;7.80;;;;;;;9.73;83.00;100193.72;5058754;28;20028;-84
2023/10/08 05:49:15;;;;;;;12.70;7.82;;;;;;;10.86;85.84;100208.31;5050680;28;20053;-83
2023/10/08 05:54:36;;;;;;;15.55;7.68;;;;;;;11.25;82.07;100223.16;5059981;28;20032;-83
2023/10/08 05:59:52;;;;;;;14.15;8.25;;;;;;;11.39;80.04;100233.72;5051985;28;20119;-85
2023/10/08 06:05:20;;;;;;;14.30;7.43;;;;;;;11.97;76.29;100224.50;5048986;28;20029;-84
2023/10/08 06:18:18;;;;;;;18.80;7.50;;;;;;;13.61;67.93;100213.38;5048847;28;20134;-83
2023/10/08 06:20:44;;;;;;;19.83;8.60;;;;;;;13.93;68.53;100242.44;5051248;28;20029;-82
2023/10/08 06:23:13;;;;;;;18.40;9.30;;;;;;;14.13;68.04;100234.00;5050436;28;20072;-82
2023/10/08 06:25:45;;;;;;;16.02;9.52;;;;;;;14.17;67.88;100226.31;5050973;28;20108;-83
2023/10/08 06:28:17;;;;;;;15.43;7.95;;;;;;;14.51;65.47;100245.19;5047993;28;20029;-83
2023/10/08 06:30:42;;;;;;;15.88;8.95;;;;;;;14.63;65.00;100219.16;5042901;28;20406;-81
2023/10/08 06:33:09;;;;;;;13.02;6.63;;;;;;;14.75;64.18;100230.63;5049196;28;20037;-82
2023/10/08 06:35:35;;;;;;;14.80;7.50;;;;;;;15.15;62.38;100223.47;5051283;28;20123;-82
2023/10/08 06:38:07;;;;;;;14.48;7.57;;;;;;;15.38;62.29;100222.47;5051153;28;20029;-85
2023/10/08 06:40:40;;;;;;;15.55;7.63;;;;;;;15.31;62.32;100203.03;5051809;28;20029;-82
2023/10/08 06:43:16;;;;;;;14.43;7.65;;;;;;;15.99;63.52;100217.91;5047322;28;20033;-84
2023/10/08 06:45:43;;;;;;;16.73;10.52;;;;;;;16.30;62.37;100214.75;5051575;28;20029;-83
2023/10/08 06:48:18;;;;;;;19.65;8.10;;;;;;;16.44;61.76;100213.28;5051149;28;20136;-85
2023/10/08 06:50:48;;;;;;;15.52;7.38;;;;;;;16.78;58.63;100205.81;5059912;28;20036;-83
2023/10/08 06:53:17;;;;;;;13.60;6.47;;;;;;;17.20;53.77;100209.66;5059805;28;20200;-83
2023/10/08 06:55:48;;;;;;;15.65;7.15;;;;;;;17.28;53.02;100211.84;5055067;28;20020;-83
2023/10/08 06:58:14;;;;;;;16.10;6.82;;;;;;;17.75;52.47;100229.13;5051758;28;20041;-82
2023/10/08 07:00:46;;;;;;;17.15;7.55;;;;;;;17.84;51.05;100227.59;5052316;28;20394;-84
2023/10/08 07:03:15;;;;;;;15.30;6.63;;;;;;;18.13;50.64;100219.06;5051081;28;20754;-82
2023/10/08 07:05:44;;;;;;;21.90;8.48;;;;;;;18.47;48.46;100224.81;5050883;28;20041;-83
2023/10/08 07:08:14;;;;;;;19.35;9.40;;;;;;;18.84;47.18;100221.91;5059647;28;20029;-81
2023/10/08 07:10:44;;;;;;;18.40;7.38;;;;;;;18.93;45.38;100221.38;5055514;28;20029;-82
2023/10/08 07:13:10;;;;;;;21.05;8.52;;;;;;;19.06;45.51;100202.72;5051937;28;20067;-82
2023/10/08 07:15:40;;;;;;;16.58;7.68;;;;;;;19.27;44.28;100208.91;5051308;28;20093;-83
2023/10/08 07:18:51;;;;;;;18.92;7.95;;;;;;;19.32;45.18;100170.22;5053253;28;20025;-82
2023/10/08 07:21:00;;;;;;;18.85;8.15;;;;;;;19.94;42.10;100192.50;5061867;28;20041;-84
2023/10/08 07:23:29;;;;;;;19.23;7.80;;;;;;;20.03;41.11;100190.81;5050494;28;20086;-83
2023/10/08 07:26:02;;;;;;;21.67;8.35;;;;;;;20.20;42.82;100203.97;5050437;28;20498;-84
2023/10/08 07:28:30;;;;;;;22.65;8.13;;;;;;;20.60;40.71;100204.03;5050324;28;20032;-83
2023/10/08 07:30:57;;;;;;;15.85;7.82;;;;;;;20.65;40.54;100182.31;5050614;28;20405;-85
2023/10/08 07:33:24;;;;;;;17.92;7.72;;;;;;;20.87;39.34;100185.38;5050538;28;20024;-85
2023/10/08 07:38:42;;;;;;;15.85;7.50;;;;;;;21.28;39.21;100184.19;5053418;28;20509;-84
2023/10/08 07:41:12;;;;;;;14.45;5.55;;;;;;;21.65;36.32;100197.06;5066981;28;20028;-83
2023/10/08 07:43:39;;;;;;;15.90;5.15;;;;;;;21.93;33.75;100175.56;5067452;28;20028;-82
2023/10/08 07:46:05;;;;;;;16.20;5.10;;;;;;;22.38;33.31;100196.97;5056602;28;20064;-83
2023/10/08 07:48:31;;;;;;;14.27;5.03;;;;;;;22.44;31.95;100191.16;5058462;28;20048;-81
2023/10/08 07:50:59;;;;;;;13.77;5.28;;;;;;;22.73;32.52;100192.91;5050013;28;20028;-81
2023/10/08 07:53:25;;;;;;;12.13;5.22;;;;;;;22.86;31.86;100186.69;5050130;28;20079;-82
2023/10/08 07:55:51;;;;;;;12.57;4.75;;;;;;;23.12;30.87;100183.53;5053684;28;20068;-81
2023/10/08 07:58:18;;;;;;;14.27;4.78;;;;;;;23.37;30.79;100192.34;5049860;28;20519;-82
2023/10/08 08:01:00;;;;;;;14.07;4.32;;;;;;;23.30;30.10;100175.63;5054599;28;20096;-83
2023/10/08 08:03:26;;;;;;;8.75;3.78;;;;;;;23.55;29.42;100179.75;5036729;28;20477;-83
2023/10/08 08:05:52;;;;;;;11.88;4.45;;;;;;;23.67;29.94;100177.31;5056118;28;20561;-83
2023/10/08 08:08:21;;;;;;;12.25;4.07;;;;;;;23.83;29.74;100158.78;5054366;28;20099;-82
2023/10/08 08:10:47;;;;;;;11.80;4.60;;;;;;;24.09;29.76;100152.75;5049404;28;20123;-79
2023/10/08 08:13:20;;;;;;;10.55;4.20;;;;;;;24.38;29.45;100146.94;5050703;28;20449;-82
2023/10/08 08:15:50;;;;;;;9.88;3.90;;;;;;;24.35;28.56;100169.34;5050153;28;20113;-81
2023/10/08 08:18:22;;;;;;;14.77;3.88;;;;;;;24.27;28.56;100159.97;5049990;28;20132;-85
2023/10/08 08:20:48;;;;;;;13.13;4.88;;;;;;;24.37;28.29;100146.09;5050072;28;20041;-83
2023/10/08 08:23:14;;;;;;;10.48;3.78;;;;;;;24.61;28.05;100150.47;5050342;28;20029;-83
2023/10/08 08:25:55;;;;;;;10.10;3.58;;;;;;;24.72;28.48;100151.81;5036386;28;20090;-84
2023/10/08 08:28:24;;;;;;;15.95;4.20;;;;;;;24.90;27.70;100143.75;5050144;28;20027;-84
2023/10/08 08:30:52;;;;;;;14.00;3.97;;;;;;;24.92;27.97;100125.16;5050133;28;20490;-82
2023/10/08 08:33:22;;;;;;;;;;;;;;;25.29;27.46;100140.25;5051003;28;20029;-81
2023/10/08 08:36:01;;;;;;;11.10;3.55;;;;;;;25.17;27.12;100129.91;5051549;28;19924;-81
2023/10/08 08:38:32;;;;;;;8.40;3.40;;;;;;;25.18;26.34;100106.94;5055581;28;20024;-83
2023/10/08 08:41:07;;;;;;;10.00;3.47;;;;;;;25.37;26.48;100128.56;5050007;28;20111;-83
2023/10/08 08:43:36;;;;;;;8.07;3.22;;;;;;;25.18;26.46;100109.69;5051510;28;20029;-82
2023/10/08 08:46:05;;;;;;;11.30;3.65;;;;;;;25.23;26.74;100085.03;5054628;28;20029;-82
2023/10/08 08:48:33;;;;;;;13.00;3.70;;;;;;;25.88;26.41;100115.31;5050805;28;20048;-83
2023/10/08 08:51:00;;;;;;;12.75;3.60;;;;;;;25.96;26.45;100128.22;5050194;28;20413;-83
2023/10/08 08:53:26;;;;;;;11.10;4.25;;;;;;;26.07;25.88;100112.28;5051031;28;20028;-81
2023/10/08 08:55:53;;;;;;;10.25;4.35;;;;;;;26.14;26.05;100114.56;5065375;28;20027;-81
2023/10/08 08:58:19;;;;;;;9.85;3.45;;;;;;;26.36;25.32;100117.13;5059840;28;20036;-83
2023/10/08 09:00:52;;;;;;;10.98;3.85;;;;;;;26.63;25.21;100107.75;5051264;28;20033;-82
2023/10/08 09:03:19;;;;;;;10.10;3.75;;;;;;;26.57;25.00;100124.63;5053422;28;20036;-81
2023/10/08 09:05:49;;;;;;;20.10;9.27;;;;;;;26.46;24.66;100114.03;5051287;28;20623;-82
2023/10/08 09:08:18;;;;;;;24.50;11.73;;;;;;;26.57;24.65;100102.75;5051080;28;20032;-82
2023/10/08 09:10:52;;;;;;;10.82;5.90;;;;;;;26.57;24.84;100100.84;5050108;28;20033;-84
2023/10/08 09:13:22;;;;;;;15.82;8.10;;;;;;;26.71;24.41;100100.66;5055592;28;20033;-82
2023/10/08 09:15:48;;;;;;;24.50;15.63;;;;;;;26.65;24.04;100082.81;5054717;28;20120;-85
2023/10/08 09:18:16;;;;;;;23.38;14.43;;;;;;;26.50;24.21;100080.56;5059619;28;20057;-84
2023/10/08 09:20:44;;;;;;;;;;;;;;;26.63;23.99;100096.00;5057164;28;20409;-84
2023/10/08 09:23:17;;;;;;;11.48;5.18;;;;;;;26.66;24.37;100089.88;5050819;28;19912;-83
2023/10/08 09:25:44;;;;;;;14.05;5.25;;;;;;;26.77;23.49;100088.41;5071034;28;20052;-83
2023/10/08 09:28:12;;;;;;;13.77;6.43;;;;;;;26.85;23.68;100071.16;5055200;28;20037;-82
2023/10/08 09:30:39;;;;;;;20.10;9.30;;;;;;;26.94;23.53;100067.59;5053277;28;20119;-85
2023/10/08 09:33:10;;;;;;;28.25;17.40;;;;;;;27.18;23.84;100054.09;5062524;28;20089;-84
2023/10/08 09:35:36;;;;;;;32.90;20.38;;;;;;;27.08;23.39;100062.69;5066439;28;20555;-83
2023/10/08 09:38:11;;;;;;;11.10;3.83;;;;;;;27.16;23.39;100070.03;5066242;28;20024;-84
2023/10/08 09:40:38;;;;;;;12.90;6.20;;;;;;;27.25;23.94;100046.16;5063123;28;20047;-83
2023/10/08 09:43:04;;;;;;;12.13;5.93;;;;;;;27.59;22.99;100066.25;5068966;28;20091;-84
2023/10/08 09:45:30;;;;;;;20.85;10.90;;;;;;;27.89;22.12;100052.53;5071952;28;20040;-83
2023/10/08 09:47:56;;;;;;;18.95;8.63;;;;;;;27.66;23.06;100032.84;5073476;28;20037;-83
2023/10/08 09:50:28;;;;;;;19.48;10.35;;;;;;;27.91;22.61;100039.28;5061588;28;20044;-83
2023/10/08 09:53:19;;;;;;;13.88;5.72;;;;;;;27.99;22.76;100054.84;5061833;28;20031;-85
2023/10/08 09:55:56;;;;;;;14.25;7.03;;;;;;;28.00;22.73;100047.44;5063790;28;20079;-85
2023/10/08 09:58:31;;;;;;;12.02;6.05;;;;;;;27.99;23.35;100041.16;5064725;28;20085;-85
2023/10/08 10:00:58;;;;;;;11.73;3.92;;;;;;;27.99;22.86;100035.66;5062451;28;20052;-81
2023/10/08 10:03:26;;;;;;;10.52;3.97;;;;;;;28.31;22.55;100052.44;5060570;28;20029;-83
2023/10/08 10:05:51;;;;;;;7.78;3.40;;;;;;;28.27;22.58;100037.78;5053680;28;20033;-82
2023/10/08 10:08:17;;;;;;;10.80;4.53;;;;;;;28.04;22.67;100013.50;5057400;28;20025;-84
2023/10/08 10:10:49;;;;;;;15.85;7.43;;;;;;;28.11;22.69;100021.19;5063770;28;20036;-82
2023/10/08 10:13:18;;;;;;;11.48;5.57;;;;;;;28.41;22.16;100019.09;5057632;28;20819;-83
2023/10/08 10:15:44;;;;;;;19.60;10.93;;;;;;;28.52;22.36;100000.25;5052961;28;20082;-84
2023/10/08 10:18:18;;;;;;;13.02;6.40;;;;;;;29.00;22.86;100019.84;5053985;28;20084;-83
2023/10/08 10:20:48;;;;;;;9.70;3.63;;;;;;;29.18;22.45;100023.19;5062661;28;20497;-83
2023/10/08 10:23:37;;;;;;;7.47;2.35;;;;;;;29.52;21.52;100010.84;5067220;28;20037;-84
2023/10/08 10:26:04;;;;;;;8.82;3.00;;;;;;;29.18;22.39;99996.50;5054351;28;20044;-82
2023/10/08 10:28:29;;;;;;;9.48;3.15;;;;;;;28.95;22.26;99995.34;5052828;28;20112;-83
2023/10/08 10:30:56;;;;;;;8.82;2.67;;;;;;;28.95;22.23;99982.47;5053495;28;20125;-86
2023/10/08 10:33:40;;;;;;;9.83;4.20;;;;;;;29.11;23.62;99971.56;5056266;28;20471;-82
2023/10/08 10:36:08;;;;;;;5.95;2.70;;;;;;;29.36;21.62;99971.50;5060243;28;20985;-83
2023/10/08 10:38:35;;;;;;;13.32;3.20;;;;;;;29.38;22.31;99980.19;5061852;28;20455;-84
2023/10/08 10:41:08;;;;;;;9.93;4.35;;;;;;;29.34;21.97;99968.31;5053144;28;20033;-82
2023/10/08 10:43:34;;;;;;;15.25;7.03;;;;;;;29.19;21.88;99954.16;5053021;28;20039;-85
2023/10/08 10:46:19;;;;;;;12.48;5.30;;;;;;;29.51;21.99;99943.31;5055563;28;20029;-82
2023/10/08 10:48:57;;;;;;;9.40;3.50;;;;;;;29.50;22.54;99941.69;5056228;28;20114;-82
2023/10/08 10:51:23;;;;;;;;;;;;;;;30.27;21.82;99961.84;5062479;28;20381;-84
2023/10/08 10:54:02;;;;;;;8.00;2.97;;;;;;;30.14;21.96;99928.09;5063105;28;19924;-83
2023/10/08 10:56:30;;;;;;;8.13;3.10;;;;;;;30.08;21.48;99940.50;5051272;28;20037;-82
2023/10/08 10:58:59;;;;;;;11.25;4.70;;;;;;;30.14;22.03;99959.16;5049500;28;20032;-83
2023/10/08 11:01:44;;;;;;;7.20;2.67;;;;;;;30.43;22.14;99948.91;5050801;28;20039;-81
2023/10/08 11:04:15;;;;;;;7.03;2.70;;;;;;;30.42;21.80;99950.88;5050436;28;20021;-83
2023/10/08 11:06:44;;;;;;;7.18;3.20;;;;;;;30.30;21.63;99939.97;5052821;28;20106;-84
2023/10/08 11:09:15;;;;;;;6.63;2.45;;;;;;;30.01;22.56;99928.19;5054869;28;20584;-83
2023/10/08 11:11:43;;;;;;;6.78;2.60;;;;;;;30.12;21.77;99911.97;5059622;28;20029;-82
2023/10/08 11:14:15;;;;;;;8.13;2.80;;;;;;;30.75;21.70;99922.16;5054763;28;20067;-83
2023/10/08 11:16:43;;;;;;;8.27;2.20;;;;;;;30.80;21.02;99902.59;5063535;28;20052;-82
2023/10/08 11:19:09;;;;;;;7.68;2.70;;;;;;;30.81;21.50;99904.19;5055335;28;20032;-83
2023/10/08 11:21:53;;;;;;;9.80;2.70;;;;;;;31.01;21.18;99901.47;5058268;28;20032;-80
2023/10/08 11:24:37;;;;;;;6.30;2.30;;;;;;;31.24;21.03;99910.63;5067170;28;20055;-84
2023/10/08 11:27:16;;;;;;;6.90;2.30;;;;;;;31.05;21.01;99902.34;5053808;28;20029;-83
2023/10/08 11:29:46;;;;;;;5.28;2.03;;;;;;;31.08;21.02;99893.38;5055365;28;20743;-82
2023/10/08 11:32:12;;;;;;;8.85;2.35;;;;;;;30.87;22.38;99903.91;5050718;28;20033;-85
2023/10/08 11:34:39;;;;;;;10.48;3.03;;;;;;;30.65;21.12;99889.69;5055335;28;20020;-85
2023/10/08 11:37:19;;;;;;;8.10;2.87;;;;;;;30.67;21.34;99897.56;5068098;28;20131;-84
2023/10/08 11:39:46;;;;;;;8.77;2.45;;;;;;;30.39;21.71;99904.00;5066835;28;20024;-85
2023/10/08 11:44:59;;;;;;;5.78;2.13;;;;;;;31.01;21.41;99884.97;5067267;28;20738;-84
2023/10/08 11:47:30;;;;;;;9.23;2.30;;;;;;;30.68;21.50;99850.41;5059732;28;20053;-84
2023/10/08 11:50:10;;;;;;;5.28;2.40;;;;;;;30.66;21.47;99869.25;5054037;28;20029;-84
2023/10/08 11:52:41;;;;;;;7.32;2.80;;;;;;;30.74;21.54;99871.00;5049511;28;20033;-85
2023/10/08 11:55:08;;;;;;;9.70;2.50;;;;;;;30.37;21.35;99854.06;5054560;28;20033;-83
2023/10/08 11:57:35;;;;;;;7.32;2.70;;;;;;;30.94;20.88;99885.63;5050068;28;20037;-81
2023/10/08 12:00:18;;;;;;;;;;;;;;;31.09;21.72;99875.69;5053712;28;20029;-83
2023/10/08 12:02:47;;;;;;;5.50;2.38;;;;;;;30.71;20.99;99852.47;5042409;28;19912;-83
2023/10/08 12:05:18;;;;;;;6.13;2.13;;;;;;;30.93;21.07;99855.69;5050113;28;20029;-84
2023/10/08 12:07:57;;;;;;;7.38;2.08;;;;;;;30.87;21.11;99846.88;5062245;28;20036;-84
2023/10/08 12:10:23;;;;;;;10.25;3.78;;;;;;;31.16;21.68;99853.00;5056627;28;20044;-83
2023/10/08 12:12:54;;;;;;;10.10;2.90;;;;;;;31.06;21.34;99848.88;5059010;28;20067;-84
2023/10/08 12:15:20;;;;;;;9.27;2.90;;;;;;;31.26;21.44;99851.63;5053398;28;20028;-83
2023/10/08 12:20:38;;;;;;;7.70;2.53;;;;;;;30.93;21.73;99825.41;5057693;28;20043;-85
2023/10/08 12:23:05;;;;;;;10.90;3.00;;;;;;;31.35;21.51;99841.19;5049977;28;20048;-85
2023/10/08 12:25:32;;;;;;;;;;;;;;;31.42;21.31;99852.31;5053036;28;20075;-83
2023/10/08 12:28:04;;;;;;;11.63;2.95;;;;;;;31.10;20.57;99833.22;5057354;28;19916;-84
2023/10/08 12:30:41;;;;;;;6.78;2.47;;;;;;;31.64;21.29;99840.53;5057800;28;20041;-83
2023/10/08 12:33:07;;;;;;;10.20;3.42;;;;;;;31.80;20.75;99821.13;5039762;28;20417;-84
2023/10/08 12:35:32;;;;;;;8.27;3.22;;;;;;;31.93;20.39;99832.75;5048019;28;20021;-84
2023/10/08 12:37:58;;;;;;;7.65;2.50;;;;;;;31.86;20.55;99834.63;5048135;28;20450;-85
2023/10/08 12:40:23;;;;;;;8.63;3.00;;;;;;;31.97;21.04;99832.81;5052312;28;20112;-85
2023/10/08 12:42:52;;;;;;;9.82;2.67;;;;;;;31.73;20.68;99831.25;5048320;28;20029;-86
2023/10/08 12:45:20;;;;;;;10.23;3.00;;;;;;;31.68;20.69;99824.06;5052996;28;20081;-84
2023/10/08 12:47:52;;;;;;;8.85;2.80;;;;;;;31.34;20.80;99825.78;5052022;28;20119;-83
2023/10/08 12:50:29;;;;;;;10.35;3.47;;;;;;;31.69;20.87;99825.69;5056394;28;20029;-85
2023/10/08 12:52:55;;;;;;;9.82;3.22;;;;;;;31.75;20.69;99835.25;5061249;28;20031;-83